PAFA/FAI METAR and TAF weather

Enter ICAO airport designator
Station Type Date Time Source
PAFA METAR 2019/05/21 20:53 UTC NOAA

PAFA 212053Z 00000KT 10SM FEW065 FEW110 BKN180 21/M01 A2995 RMK AO2 SLP147 T02111011 56004


Station Type Date Time Source
PAFA Decoded METAR 2019/05/21 20:53 UTC NOAA

Fairbanks, Fairbanks International Airport, AK, United States (PAFA) 64-48-14N 147-52-34W 140M
May 21, 2019 - 04:53 PM EDT / 2019.05.21 2053 UTC
Wind: Calm:0
Visibility: 10 mile(s):0
Sky conditions: mostly cloudy
Temperature: 70.0 F (21.1 C)
Dew Point: 30.0 F (-1.1 C)
Relative Humidity: 22%
Pressure (altimeter): 29.95 in. Hg (1014 hPa)
Pressure tendency: 0.01 inches (0.4 hPa) lower than three hours ago
ob: PAFA 212053Z 00000KT 10SM FEW065 FEW110 BKN180 21/M01 A2995 RMK AO2 SLP147 T02111011 56004
cycle: 21

Station Type Date Time Source
PAFA TAF 2019/05/21 18:45 UTC NOAA

TAF PAFA 211739Z 2118/2224 VRB03KT P6SM FEW060 SCT110
FM220500 VRB04KT P6SM VCSH SCT050

Example: see airport list